sensor_id;sensor_type;location;lat;lon;timestamp;P1;durP1;ratioP1;P2;durP2;ratioP2
50681;SDS011;36779;52.168;20.878;2022-10-13T00:02:25;38.80;;;14.50;;
50681;SDS011;36779;52.168;20.878;2022-10-13T00:04:53;44.60;;;14.60;;
50681;SDS011;36779;52.168;20.878;2022-10-13T00:07:23;39.20;;;14.50;;
50681;SDS011;36779;52.168;20.878;2022-10-13T00:09:51;36.00;;;14.60;;
50681;SDS011;36779;52.168;20.878;2022-10-13T00:12:19;37.30;;;14.00;;
50681;SDS011;36779;52.168;20.878;2022-10-13T00:14:48;37.50;;;15.80;;
50681;SDS011;36779;52.168;20.878;2022-10-13T00:17:16;37.80;;;15.20;;
50681;SDS011;36779;52.168;20.878;2022-10-13T00:19:44;41.40;;;14.80;;
50681;SDS011;36779;52.168;20.878;2022-10-13T00:22:13;43.60;;;14.80;;
50681;SDS011;36779;52.168;20.878;2022-10-13T00:24:43;42.20;;;14.60;;
50681;SDS011;36779;52.168;20.878;2022-10-13T00:27:17;33.30;;;14.00;;
50681;SDS011;36779;52.168;20.878;2022-10-13T00:29:45;38.20;;;15.00;;
50681;SDS011;36779;52.168;20.878;2022-10-13T00:32:14;43.00;;;15.30;;
50681;SDS011;36779;52.168;20.878;2022-10-13T00:34:43;40.50;;;14.00;;
50681;SDS011;36779;52.168;20.878;2022-10-13T00:37:11;41.30;;;14.60;;
50681;SDS011;36779;52.168;20.878;2022-10-13T00:39:40;39.30;;;14.40;;
50681;SDS011;36779;52.168;20.878;2022-10-13T00:42:09;41.00;;;14.60;;
50681;SDS011;36779;52.168;20.878;2022-10-13T00:44:59;41.10;;;13.80;;
50681;SDS011;36779;52.168;20.878;2022-10-13T00:47:32;39.50;;;15.50;;
50681;SDS011;36779;52.168;20.878;2022-10-13T00:50:06;39.60;;;13.30;;
50681;SDS011;36779;52.168;20.878;2022-10-13T00:52:39;39.40;;;14.50;;
50681;SDS011;36779;52.168;20.878;2022-10-13T00:55:11;29.80;;;12.80;;
50681;SDS011;36779;52.168;20.878;2022-10-13T00:57:43;39.20;;;14.60;;
50681;SDS011;36779;52.168;20.878;2022-10-13T01:00:22;38.00;;;13.60;;
50681;SDS011;36779;52.168;20.878;2022-10-13T01:02:51;29.50;;;12.30;;
50681;SDS011;36779;52.168;20.878;2022-10-13T01:05:20;32.50;;;12.90;;
50681;SDS011;36779;52.168;20.878;2022-10-13T01:07:49;37.30;;;13.80;;
50681;SDS011;36779;52.168;20.878;2022-10-13T01:10:19;34.60;;;13.90;;
50681;SDS011;36779;52.168;20.878;2022-10-13T01:13:04;43.60;;;14.40;;
50681;SDS011;36779;52.168;20.878;2022-10-13T01:15:40;42.40;;;14.50;;
50681;SDS011;36779;52.168;20.878;2022-10-13T01:18:18;39.80;;;14.00;;
50681;SDS011;36779;52.168;20.878;2022-10-13T01:20:58;34.20;;;14.00;;
50681;SDS011;36779;52.168;20.878;2022-10-13T01:26:36;37.30;;;14.00;;
50681;SDS011;36779;52.168;20.878;2022-10-13T01:29:23;38.20;;;14.60;;
50681;SDS011;36779;52.168;20.878;2022-10-13T01:32:09;38.00;;;13.90;;
50681;SDS011;36779;52.168;20.878;2022-10-13T01:34:48;38.80;;;15.20;;
50681;SDS011;36779;52.168;20.878;2022-10-13T01:37:25;43.10;;;14.90;;
50681;SDS011;36779;52.168;20.878;2022-10-13T01:40:01;36.10;;;14.50;;
50681;SDS011;36779;52.168;20.878;2022-10-13T01:42:38;35.90;;;14.50;;
50681;SDS011;36779;52.168;20.878;2022-10-13T01:45:14;32.40;;;13.50;;
50681;SDS011;36779;52.168;20.878;2022-10-13T01:47:48;32.00;;;13.40;;
50681;SDS011;36779;52.168;20.878;2022-10-13T01:50:18;27.50;;;11.60;;
50681;SDS011;36779;52.168;20.878;2022-10-13T01:52:47;31.40;;;13.30;;
50681;SDS011;36779;52.168;20.878;2022-10-13T01:55:17;35.10;;;14.10;;
50681;SDS011;36779;52.168;20.878;2022-10-13T01:57:45;32.50;;;13.00;;
50681;SDS011;36779;52.168;20.878;2022-10-13T02:00:15;37.50;;;13.80;;
50681;SDS011;36779;52.168;20.878;2022-10-13T02:02:51;37.10;;;14.20;;
50681;SDS011;36779;52.168;20.878;2022-10-13T02:05:29;36.30;;;14.10;;
50681;SDS011;36779;52.168;20.878;2022-10-13T02:08:09;34.00;;;12.00;;
50681;SDS011;36779;52.168;20.878;2022-10-13T02:10:43;31.10;;;12.80;;
50681;SDS011;36779;52.168;20.878;2022-10-13T02:13:18;34.80;;;13.30;;
50681;SDS011;36779;52.168;20.878;2022-10-13T02:15:54;45.40;;;14.90;;
50681;SDS011;36779;52.168;20.878;2022-10-13T02:18:26;32.40;;;13.20;;
50681;SDS011;36779;52.168;20.878;2022-10-13T02:20:58;36.70;;;13.10;;
50681;SDS011;36779;52.168;20.878;2022-10-13T02:23:28;39.80;;;13.60;;
50681;SDS011;36779;52.168;20.878;2022-10-13T02:25:58;36.80;;;13.90;;
50681;SDS011;36779;52.168;20.878;2022-10-13T02:28:27;35.30;;;15.00;;
50681;SDS011;36779;52.168;20.878;2022-10-13T02:30:56;41.90;;;15.10;;
50681;SDS011;36779;52.168;20.878;2022-10-13T02:33:24;40.10;;;14.90;;
50681;SDS011;36779;52.168;20.878;2022-10-13T02:35:53;35.80;;;15.00;;
50681;SDS011;36779;52.168;20.878;2022-10-13T02:38:22;41.60;;;16.40;;
50681;SDS011;36779;52.168;20.878;2022-10-13T02:40:51;45.00;;;15.70;;
50681;SDS011;36779;52.168;20.878;2022-10-13T02:43:20;43.20;;;16.80;;
50681;SDS011;36779;52.168;20.878;2022-10-13T02:45:49;39.90;;;15.60;;
50681;SDS011;36779;52.168;20.878;2022-10-13T02:48:18;34.40;;;15.90;;
50681;SDS011;36779;52.168;20.878;2022-10-13T02:50:46;37.20;;;16.90;;
50681;SDS011;36779;52.168;20.878;2022-10-13T02:53:15;40.20;;;16.40;;
50681;SDS011;36779;52.168;20.878;2022-10-13T02:55:43;38.40;;;16.40;;
50681;SDS011;36779;52.168;20.878;2022-10-13T02:58:12;41.40;;;15.90;;
50681;SDS011;36779;52.168;20.878;2022-10-13T03:00:40;37.00;;;16.30;;
50681;SDS011;36779;52.168;20.878;2022-10-13T03:03:09;38.40;;;16.60;;
50681;SDS011;36779;52.168;20.878;2022-10-13T03:05:38;43.00;;;16.30;;
50681;SDS011;36779;52.168;20.878;2022-10-13T03:08:07;42.10;;;16.90;;
50681;SDS011;36779;52.168;20.878;2022-10-13T03:10:35;39.70;;;17.50;;
50681;SDS011;36779;52.168;20.878;2022-10-13T03:13:04;41.10;;;17.60;;
50681;SDS011;36779;52.168;20.878;2022-10-13T03:15:33;47.50;;;18.10;;
50681;SDS011;36779;52.168;20.878;2022-10-13T03:18:03;37.70;;;16.70;;
50681;SDS011;36779;52.168;20.878;2022-10-13T03:20:31;41.80;;;17.50;;
50681;SDS011;36779;52.168;20.878;2022-10-13T03:22:59;39.10;;;17.40;;
50681;SDS011;36779;52.168;20.878;2022-10-13T03:25:28;37.80;;;16.00;;
50681;SDS011;36779;52.168;20.878;2022-10-13T03:27:56;39.20;;;17.60;;
50681;SDS011;36779;52.168;20.878;2022-10-13T03:30:26;43.70;;;18.20;;
50681;SDS011;36779;52.168;20.878;2022-10-13T03:32:55;34.90;;;16.90;;
50681;SDS011;36779;52.168;20.878;2022-10-13T03:35:24;54.30;;;19.00;;
50681;SDS011;36779;52.168;20.878;2022-10-13T03:37:53;47.50;;;19.10;;
50681;SDS011;36779;52.168;20.878;2022-10-13T03:40:24;46.60;;;19.20;;
50681;SDS011;36779;52.168;20.878;2022-10-13T03:42:53;47.00;;;18.60;;
50681;SDS011;36779;52.168;20.878;2022-10-13T03:45:22;40.30;;;18.30;;
50681;SDS011;36779;52.168;20.878;2022-10-13T03:47:50;44.50;;;17.90;;
50681;SDS011;36779;52.168;20.878;2022-10-13T03:50:19;44.30;;;17.00;;
50681;SDS011;36779;52.168;20.878;2022-10-13T03:52:48;43.90;;;16.90;;
50681;SDS011;36779;52.168;20.878;2022-10-13T03:55:17;47.40;;;18.90;;
50681;SDS011;36779;52.168;20.878;2022-10-13T03:57:45;43.30;;;17.10;;
50681;SDS011;36779;52.168;20.878;2022-10-13T04:00:15;35.50;;;17.00;;
50681;SDS011;36779;52.168;20.878;2022-10-13T04:02:43;35.80;;;16.40;;
50681;SDS011;36779;52.168;20.878;2022-10-13T04:05:14;51.00;;;16.80;;
50681;SDS011;36779;52.168;20.878;2022-10-13T04:07:43;38.30;;;16.00;;
50681;SDS011;36779;52.168;20.878;2022-10-13T04:10:18;43.30;;;16.20;;
50681;SDS011;36779;52.168;20.878;2022-10-13T04:12:48;40.50;;;18.10;;
50681;SDS011;36779;52.168;20.878;2022-10-13T04:15:17;39.60;;;16.60;;
50681;SDS011;36779;52.168;20.878;2022-10-13T04:17:46;36.90;;;16.60;;
50681;SDS011;36779;52.168;20.878;2022-10-13T04:20:14;39.90;;;17.50;;
50681;SDS011;36779;52.168;20.878;2022-10-13T04:22:43;39.30;;;16.80;;
50681;SDS011;36779;52.168;20.878;2022-10-13T04:25:11;39.50;;;16.30;;
50681;SDS011;36779;52.168;20.878;2022-10-13T04:27:40;37.50;;;16.60;;
50681;SDS011;36779;52.168;20.878;2022-10-13T04:30:10;45.90;;;16.80;;
50681;SDS011;36779;52.168;20.878;2022-10-13T04:32:40;39.10;;;16.60;;
50681;SDS011;36779;52.168;20.878;2022-10-13T04:35:10;31.70;;;15.00;;
50681;SDS011;36779;52.168;20.878;2022-10-13T04:37:39;32.70;;;15.80;;
50681;SDS011;36779;52.168;20.878;2022-10-13T04:40:12;39.20;;;16.40;;
50681;SDS011;36779;52.168;20.878;2022-10-13T04:42:41;33.00;;;15.90;;
50681;SDS011;36779;52.168;20.878;2022-10-13T04:45:09;39.50;;;16.70;;
50681;SDS011;36779;52.168;20.878;2022-10-13T04:47:39;38.60;;;16.20;;
50681;SDS011;36779;52.168;20.878;2022-10-13T04:50:08;36.10;;;17.40;;
50681;SDS011;36779;52.168;20.878;2022-10-13T04:52:38;35.70;;;15.90;;
50681;SDS011;36779;52.168;20.878;2022-10-13T04:55:07;39.30;;;16.90;;
50681;SDS011;36779;52.168;20.878;2022-10-13T04:57:36;41.70;;;16.70;;
50681;SDS011;36779;52.168;20.878;2022-10-13T05:00:08;34.90;;;16.60;;
50681;SDS011;36779;52.168;20.878;2022-10-13T05:02:38;35.70;;;14.90;;
50681;SDS011;36779;52.168;20.878;2022-10-13T05:05:07;42.40;;;15.90;;
50681;SDS011;36779;52.168;20.878;2022-10-13T05:07:38;41.80;;;16.70;;
50681;SDS011;36779;52.168;20.878;2022-10-13T05:10:07;37.10;;;16.00;;
50681;SDS011;36779;52.168;20.878;2022-10-13T05:12:37;36.60;;;15.40;;
50681;SDS011;36779;52.168;20.878;2022-10-13T05:15:07;34.90;;;14.70;;
50681;SDS011;36779;52.168;20.878;2022-10-13T05:17:37;38.20;;;16.80;;
50681;SDS011;36779;52.168;20.878;2022-10-13T05:20:09;37.70;;;15.20;;
50681;SDS011;36779;52.168;20.878;2022-10-13T05:22:38;33.60;;;15.10;;
50681;SDS011;36779;52.168;20.878;2022-10-13T05:25:06;37.20;;;15.40;;
50681;SDS011;36779;52.168;20.878;2022-10-13T05:27:35;39.20;;;16.30;;
50681;SDS011;36779;52.168;20.878;2022-10-13T05:30:07;42.40;;;16.50;;
50681;SDS011;36779;52.168;20.878;2022-10-13T05:32:37;39.70;;;17.00;;
50681;SDS011;36779;52.168;20.878;2022-10-13T05:35:06;36.20;;;17.00;;
50681;SDS011;36779;52.168;20.878;2022-10-13T05:37:38;39.10;;;16.00;;
50681;SDS011;36779;52.168;20.878;2022-10-13T05:40:07;43.00;;;17.50;;
50681;SDS011;36779;52.168;20.878;2022-10-13T05:42:38;41.80;;;17.10;;
50681;SDS011;36779;52.168;20.878;2022-10-13T05:45:08;39.50;;;17.50;;
50681;SDS011;36779;52.168;20.878;2022-10-13T05:47:38;43.00;;;17.10;;
50681;SDS011;36779;52.168;20.878;2022-10-13T05:50:07;38.60;;;16.50;;
50681;SDS011;36779;52.168;20.878;2022-10-13T05:52:39;42.70;;;16.80;;
50681;SDS011;36779;52.168;20.878;2022-10-13T05:55:09;39.70;;;17.20;;
50681;SDS011;36779;52.168;20.878;2022-10-13T05:57:40;36.70;;;16.50;;
50681;SDS011;36779;52.168;20.878;2022-10-13T06:00:12;45.10;;;17.30;;
50681;SDS011;36779;52.168;20.878;2022-10-13T06:02:45;36.40;;;16.80;;
50681;SDS011;36779;52.168;20.878;2022-10-13T06:05:18;40.30;;;17.70;;
50681;SDS011;36779;52.168;20.878;2022-10-13T06:07:52;39.00;;;15.70;;
50681;SDS011;36779;52.168;20.878;2022-10-13T06:10:21;50.60;;;17.20;;
50681;SDS011;36779;52.168;20.878;2022-10-13T06:12:50;45.00;;;16.00;;
50681;SDS011;36779;52.168;20.878;2022-10-13T06:15:19;41.90;;;16.20;;
50681;SDS011;36779;52.168;20.878;2022-10-13T06:17:55;35.60;;;14.70;;
50681;SDS011;36779;52.168;20.878;2022-10-13T06:20:24;32.70;;;15.60;;
50681;SDS011;36779;52.168;20.878;2022-10-13T06:22:54;41.30;;;16.30;;
50681;SDS011;36779;52.168;20.878;2022-10-13T06:25:22;34.50;;;16.00;;
50681;SDS011;36779;52.168;20.878;2022-10-13T06:27:51;37.90;;;17.00;;
50681;SDS011;36779;52.168;20.878;2022-10-13T06:30:19;36.20;;;14.70;;
50681;SDS011;36779;52.168;20.878;2022-10-13T06:32:47;31.60;;;15.60;;
50681;SDS011;36779;52.168;20.878;2022-10-13T06:35:16;38.20;;;17.00;;
50681;SDS011;36779;52.168;20.878;2022-10-13T06:37:44;42.80;;;17.40;;
50681;SDS011;36779;52.168;20.878;2022-10-13T06:40:14;37.00;;;15.90;;
50681;SDS011;36779;52.168;20.878;2022-10-13T06:42:48;36.40;;;15.30;;
50681;SDS011;36779;52.168;20.878;2022-10-13T06:45:17;34.70;;;14.70;;
50681;SDS011;36779;52.168;20.878;2022-10-13T06:47:45;37.60;;;15.90;;
50681;SDS011;36779;52.168;20.878;2022-10-13T06:50:15;37.20;;;15.50;;
50681;SDS011;36779;52.168;20.878;2022-10-13T06:52:43;42.70;;;16.20;;
50681;SDS011;36779;52.168;20.878;2022-10-13T06:55:12;49.60;;;16.10;;
50681;SDS011;36779;52.168;20.878;2022-10-13T06:57:41;42.40;;;15.20;;
50681;SDS011;36779;52.168;20.878;2022-10-13T07:00:10;42.40;;;16.80;;
50681;SDS011;36779;52.168;20.878;2022-10-13T07:02:39;40.00;;;16.70;;
50681;SDS011;36779;52.168;20.878;2022-10-13T07:05:08;37.90;;;15.90;;
50681;SDS011;36779;52.168;20.878;2022-10-13T07:07:38;37.30;;;15.90;;
50681;SDS011;36779;52.168;20.878;2022-10-13T07:10:06;33.10;;;15.00;;
50681;SDS011;36779;52.168;20.878;2022-10-13T07:12:36;36.30;;;14.80;;
50681;SDS011;36779;52.168;20.878;2022-10-13T07:15:09;34.90;;;14.40;;
50681;SDS011;36779;52.168;20.878;2022-10-13T07:17:39;35.80;;;14.30;;
50681;SDS011;36779;52.168;20.878;2022-10-13T07:20:08;36.70;;;13.90;;
50681;SDS011;36779;52.168;20.878;2022-10-13T07:22:39;34.80;;;13.30;;
50681;SDS011;36779;52.168;20.878;2022-10-13T07:25:09;32.30;;;13.70;;
50681;SDS011;36779;52.168;20.878;2022-10-13T07:27:39;29.90;;;12.20;;
50681;SDS011;36779;52.168;20.878;2022-10-13T07:30:10;30.00;;;12.70;;
50681;SDS011;36779;52.168;20.878;2022-10-13T07:32:39;30.80;;;13.90;;
50681;SDS011;36779;52.168;20.878;2022-10-13T07:35:09;33.70;;;12.40;;
50681;SDS011;36779;52.168;20.878;2022-10-13T07:37:39;30.60;;;12.40;;
50681;SDS011;36779;52.168;20.878;2022-10-13T07:40:10;29.40;;;11.70;;
50681;SDS011;36779;52.168;20.878;2022-10-13T07:42:39;27.20;;;10.60;;
50681;SDS011;36779;52.168;20.878;2022-10-13T07:45:10;29.30;;;10.70;;
50681;SDS011;36779;52.168;20.878;2022-10-13T07:47:39;26.30;;;10.20;;
50681;SDS011;36779;52.168;20.878;2022-10-13T07:50:08;28.60;;;10.30;;
50681;SDS011;36779;52.168;20.878;2022-10-13T07:52:40;24.10;;;11.30;;
50681;SDS011;36779;52.168;20.878;2022-10-13T07:55:11;23.20;;;10.80;;
50681;SDS011;36779;52.168;20.878;2022-10-13T07:57:40;24.30;;;10.90;;
50681;SDS011;36779;52.168;20.878;2022-10-13T08:00:10;21.60;;;9.40;;
50681;SDS011;36779;52.168;20.878;2022-10-13T08:02:39;19.40;;;9.00;;
50681;SDS011;36779;52.168;20.878;2022-10-13T08:05:08;21.20;;;8.00;;
50681;SDS011;36779;52.168;20.878;2022-10-13T08:07:36;20.70;;;7.50;;
50681;SDS011;36779;52.168;20.878;2022-10-13T08:10:06;17.90;;;8.60;;
50681;SDS011;36779;52.168;20.878;2022-10-13T08:12:35;21.00;;;7.60;;
50681;SDS011;36779;52.168;20.878;2022-10-13T08:15:06;19.20;;;7.20;;
50681;SDS011;36779;52.168;20.878;2022-10-13T08:17:36;20.60;;;7.50;;
50681;SDS011;36779;52.168;20.878;2022-10-13T08:20:06;20.70;;;7.00;;
50681;SDS011;36779;52.168;20.878;2022-10-13T08:22:36;16.60;;;6.80;;
50681;SDS011;36779;52.168;20.878;2022-10-13T08:25:09;16.70;;;7.00;;
50681;SDS011;36779;52.168;20.878;2022-10-13T08:27:40;19.40;;;5.70;;
50681;SDS011;36779;52.168;20.878;2022-10-13T08:30:18;14.60;;;6.60;;
50681;SDS011;36779;52.168;20.878;2022-10-13T08:32:46;16.10;;;6.20;;
50681;SDS011;36779;52.168;20.878;2022-10-13T08:35:15;13.90;;;5.60;;
50681;SDS011;36779;52.168;20.878;2022-10-13T08:37:43;16.20;;;5.50;;
50681;SDS011;36779;52.168;20.878;2022-10-13T08:40:12;10.60;;;5.10;;
50681;SDS011;36779;52.168;20.878;2022-10-13T08:42:43;13.70;;;5.20;;
50681;SDS011;36779;52.168;20.878;2022-10-13T08:45:14;11.90;;;5.90;;
50681;SDS011;36779;52.168;20.878;2022-10-13T08:48:08;14.40;;;6.20;;
50681;SDS011;36779;52.168;20.878;2022-10-13T08:50:41;13.90;;;6.40;;
50681;SDS011;36779;52.168;20.878;2022-10-13T08:53:13;17.00;;;6.90;;
50681;SDS011;36779;52.168;20.878;2022-10-13T08:55:50;16.50;;;5.90;;
50681;SDS011;36779;52.168;20.878;2022-10-13T08:58:22;13.80;;;6.30;;
50681;SDS011;36779;52.168;20.878;2022-10-13T09:00:56;14.70;;;7.20;;
50681;SDS011;36779;52.168;20.878;2022-10-13T09:03:32;14.90;;;7.60;;
50681;SDS011;36779;52.168;20.878;2022-10-13T09:06:13;13.10;;;7.30;;
50681;SDS011;36779;52.168;20.878;2022-10-13T09:08:46;16.40;;;6.30;;
50681;SDS011;36779;52.168;20.878;2022-10-13T09:11:19;14.20;;;6.50;;
50681;SDS011;36779;52.168;20.878;2022-10-13T09:13:52;11.80;;;6.20;;
50681;SDS011;36779;52.168;20.878;2022-10-13T09:16:26;12.00;;;5.80;;
50681;SDS011;36779;52.168;20.878;2022-10-13T09:19:11;12.10;;;5.80;;
50681;SDS011;36779;52.168;20.878;2022-10-13T09:21:45;13.60;;;6.30;;
50681;SDS011;36779;52.168;20.878;2022-10-13T09:24:15;12.30;;;6.20;;
50681;SDS011;36779;52.168;20.878;2022-10-13T09:26:47;13.40;;;6.60;;
50681;SDS011;36779;52.168;20.878;2022-10-13T09:29:19;11.80;;;6.30;;
50681;SDS011;36779;52.168;20.878;2022-10-13T09:31:52;12.90;;;6.20;;
50681;SDS011;36779;52.168;20.878;2022-10-13T09:34:33;10.30;;;6.10;;
50681;SDS011;36779;52.168;20.878;2022-10-13T09:37:05;12.90;;;5.40;;
50681;SDS011;36779;52.168;20.878;2022-10-13T09:39:43;10.30;;;5.10;;
50681;SDS011;36779;52.168;20.878;2022-10-13T09:42:19;15.10;;;4.90;;
50681;SDS011;36779;52.168;20.878;2022-10-13T09:44:58;11.70;;;5.70;;
50681;SDS011;36779;52.168;20.878;2022-10-13T09:47:29;11.20;;;5.10;;
50681;SDS011;36779;52.168;20.878;2022-10-13T09:50:00;9.50;;;4.50;;
50681;SDS011;36779;52.168;20.878;2022-10-13T09:52:41;9.10;;;4.30;;
50681;SDS011;36779;52.168;20.878;2022-10-13T09:58:01;16.30;;;4.60;;
50681;SDS011;36779;52.168;20.878;2022-10-13T10:00:33;10.60;;;4.60;;
50681;SDS011;36779;52.168;20.878;2022-10-13T10:03:04;10.80;;;4.10;;
50681;SDS011;36779;52.168;20.878;2022-10-13T10:05:42;10.30;;;4.20;;
50681;SDS011;36779;52.168;20.878;2022-10-13T10:08:17;8.40;;;4.50;;
50681;SDS011;36779;52.168;20.878;2022-10-13T10:10:59;8.20;;;4.10;;
50681;SDS011;36779;52.168;20.878;2022-10-13T10:13:31;7.60;;;3.40;;
50681;SDS011;36779;52.168;20.878;2022-10-13T10:16:00;7.40;;;3.30;;
50681;SDS011;36779;52.168;20.878;2022-10-13T10:18:34;9.00;;;3.10;;
50681;SDS011;36779;52.168;20.878;2022-10-13T10:21:09;7.60;;;2.90;;
50681;SDS011;36779;52.168;20.878;2022-10-13T10:26:17;5.80;;;2.50;;
50681;SDS011;36779;52.168;20.878;2022-10-13T10:29:00;9.50;;;3.20;;
50681;SDS011;36779;52.168;20.878;2022-10-13T10:31:53;9.40;;;3.00;;
50681;SDS011;36779;52.168;20.878;2022-10-13T10:34:31;8.30;;;3.70;;
50681;SDS011;36779;52.168;20.878;2022-10-13T10:37:15;7.30;;;2.90;;
50681;SDS011;36779;52.168;20.878;2022-10-13T10:39:53;6.40;;;2.90;;
50681;SDS011;36779;52.168;20.878;2022-10-13T10:42:43;5.50;;;2.10;;
50681;SDS011;36779;52.168;20.878;2022-10-13T10:45:30;10.00;;;3.00;;
50681;SDS011;36779;52.168;20.878;2022-10-13T10:48:03;9.20;;;2.20;;
50681;SDS011;36779;52.168;20.878;2022-10-13T10:50:41;9.80;;;2.60;;
50681;SDS011;36779;52.168;20.878;2022-10-13T10:53:12;5.70;;;2.10;;
50681;SDS011;36779;52.168;20.878;2022-10-13T10:55:47;8.60;;;2.60;;
50681;SDS011;36779;52.168;20.878;2022-10-13T10:58:25;6.00;;;2.00;;
50681;SDS011;36779;52.168;20.878;2022-10-13T11:01:06;6.10;;;2.40;;
50681;SDS011;36779;52.168;20.878;2022-10-13T11:03:47;4.60;;;2.40;;
50681;SDS011;36779;52.168;20.878;2022-10-13T11:06:22;7.50;;;2.30;;
50681;SDS011;36779;52.168;20.878;2022-10-13T11:08:59;8.50;;;3.30;;
50681;SDS011;36779;52.168;20.878;2022-10-13T11:11:33;7.10;;;2.50;;
50681;SDS011;36779;52.168;20.878;2022-10-13T11:17:16;5.80;;;2.30;;
50681;SDS011;36779;52.168;20.878;2022-10-13T11:19:47;8.90;;;3.10;;
50681;SDS011;36779;52.168;20.878;2022-10-13T11:22:18;9.80;;;3.10;;
50681;SDS011;36779;52.168;20.878;2022-10-13T11:24:53;6.90;;;2.60;;
50681;SDS011;36779;52.168;20.878;2022-10-13T11:27:40;9.00;;;3.50;;
50681;SDS011;36779;52.168;20.878;2022-10-13T11:36:36;8.30;;;2.80;;
50681;SDS011;36779;52.168;20.878;2022-10-13T11:39:19;9.60;;;3.10;;
50681;SDS011;36779;52.168;20.878;2022-10-13T11:42:17;9.20;;;2.60;;
50681;SDS011;36779;52.168;20.878;2022-10-13T11:44:56;5.60;;;2.50;;
50681;SDS011;36779;52.168;20.878;2022-10-13T11:47:35;5.60;;;2.20;;
50681;SDS011;36779;52.168;20.878;2022-10-13T11:50:23;6.30;;;2.50;;
50681;SDS011;36779;52.168;20.878;2022-10-13T11:53:10;5.70;;;2.20;;
50681;SDS011;36779;52.168;20.878;2022-10-13T11:55:44;9.40;;;2.60;;
50681;SDS011;36779;52.168;20.878;2022-10-13T11:58:16;6.10;;;2.70;;
50681;SDS011;36779;52.168;20.878;2022-10-13T12:00:50;7.10;;;2.40;;
50681;SDS011;36779;52.168;20.878;2022-10-13T12:03:21;8.30;;;2.50;;
50681;SDS011;36779;52.168;20.878;2022-10-13T12:05:52;8.30;;;2.60;;
50681;SDS011;36779;52.168;20.878;2022-10-13T12:08:24;6.90;;;2.60;;
50681;SDS011;36779;52.168;20.878;2022-10-13T12:10:55;9.40;;;2.50;;
50681;SDS011;36779;52.168;20.878;2022-10-13T12:13:29;15.00;;;3.40;;
50681;SDS011;36779;52.168;20.878;2022-10-13T12:15:59;10.20;;;3.20;;
50681;SDS011;36779;52.168;20.878;2022-10-13T12:18:33;8.90;;;2.80;;
50681;SDS011;36779;52.168;20.878;2022-10-13T12:21:09;7.60;;;2.40;;
50681;SDS011;36779;52.168;20.878;2022-10-13T12:23:39;9.70;;;3.00;;
50681;SDS011;36779;52.168;20.878;2022-10-13T12:26:12;12.40;;;3.20;;
50681;SDS011;36779;52.168;20.878;2022-10-13T12:28:45;6.70;;;2.20;;
50681;SDS011;36779;52.168;20.878;2022-10-13T12:31:17;11.20;;;2.50;;
50681;SDS011;36779;52.168;20.878;2022-10-13T12:33:52;6.60;;;2.60;;
50681;SDS011;36779;52.168;20.878;2022-10-13T12:36:24;6.80;;;2.50;;
50681;SDS011;36779;52.168;20.878;2022-10-13T12:38:58;8.80;;;3.60;;
50681;SDS011;36779;52.168;20.878;2022-10-13T12:41:28;6.50;;;2.80;;
50681;SDS011;36779;52.168;20.878;2022-10-13T12:43:59;11.70;;;3.30;;
50681;SDS011;36779;52.168;20.878;2022-10-13T12:46:37;7.60;;;2.90;;
50681;SDS011;36779;52.168;20.878;2022-10-13T12:49:11;8.40;;;3.20;;
50681;SDS011;36779;52.168;20.878;2022-10-13T12:51:41;7.90;;;3.30;;
50681;SDS011;36779;52.168;20.878;2022-10-13T12:54:16;9.50;;;3.60;;
50681;SDS011;36779;52.168;20.878;2022-10-13T12:56:48;6.10;;;2.60;;
50681;SDS011;36779;52.168;20.878;2022-10-13T12:59:24;7.10;;;3.00;;
50681;SDS011;36779;52.168;20.878;2022-10-13T13:01:56;9.20;;;3.30;;
50681;SDS011;36779;52.168;20.878;2022-10-13T13:04:30;8.90;;;3.00;;
50681;SDS011;36779;52.168;20.878;2022-10-13T13:10:15;10.10;;;2.80;;
50681;SDS011;36779;52.168;20.878;2022-10-13T13:12:45;21.50;;;3.50;;
50681;SDS011;36779;52.168;20.878;2022-10-13T13:15:20;5.10;;;2.70;;
50681;SDS011;36779;52.168;20.878;2022-10-13T13:21:06;9.90;;;3.40;;
50681;SDS011;36779;52.168;20.878;2022-10-13T13:23:38;8.90;;;3.60;;
50681;SDS011;36779;52.168;20.878;2022-10-13T13:26:12;9.00;;;3.50;;
50681;SDS011;36779;52.168;20.878;2022-10-13T13:28:43;6.60;;;2.40;;
50681;SDS011;36779;52.168;20.878;2022-10-13T13:31:15;8.10;;;3.20;;
50681;SDS011;36779;52.168;20.878;2022-10-13T13:33:45;8.30;;;3.40;;
50681;SDS011;36779;52.168;20.878;2022-10-13T13:36:16;8.00;;;3.10;;
50681;SDS011;36779;52.168;20.878;2022-10-13T13:38:49;6.90;;;2.90;;
50681;SDS011;36779;52.168;20.878;2022-10-13T13:41:20;11.60;;;2.80;;
50681;SDS011;36779;52.168;20.878;2022-10-13T13:43:54;8.30;;;2.60;;
50681;SDS011;36779;52.168;20.878;2022-10-13T13:46:24;8.50;;;3.10;;
50681;SDS011;36779;52.168;20.878;2022-10-13T13:48:54;6.10;;;2.30;;
50681;SDS011;36779;52.168;20.878;2022-10-13T13:51:24;8.90;;;2.30;;
50681;SDS011;36779;52.168;20.878;2022-10-13T13:53:53;9.40;;;3.00;;
50681;SDS011;36779;52.168;20.878;2022-10-13T13:56:26;6.80;;;2.40;;
50681;SDS011;36779;52.168;20.878;2022-10-13T13:58:55;8.10;;;2.20;;
50681;SDS011;36779;52.168;20.878;2022-10-13T14:01:24;7.60;;;2.40;;
50681;SDS011;36779;52.168;20.878;2022-10-13T14:03:53;8.00;;;2.40;;
50681;SDS011;36779;52.168;20.878;2022-10-13T14:06:22;6.50;;;2.00;;
50681;SDS011;36779;52.168;20.878;2022-10-13T14:08:50;12.50;;;3.00;;
50681;SDS011;36779;52.168;20.878;2022-10-13T14:11:19;9.20;;;2.50;;
50681;SDS011;36779;52.168;20.878;2022-10-13T14:13:53;9.10;;;2.80;;
50681;SDS011;36779;52.168;20.878;2022-10-13T14:16:27;8.60;;;2.70;;
50681;SDS011;36779;52.168;20.878;2022-10-13T14:18:57;8.20;;;3.00;;
50681;SDS011;36779;52.168;20.878;2022-10-13T14:21:27;7.60;;;2.50;;
50681;SDS011;36779;52.168;20.878;2022-10-13T14:23:56;5.20;;;2.60;;
50681;SDS011;36779;52.168;20.878;2022-10-13T14:26:25;5.10;;;2.40;;
50681;SDS011;36779;52.168;20.878;2022-10-13T14:28:54;6.80;;;2.30;;
50681;SDS011;36779;52.168;20.878;2022-10-13T14:31:24;5.10;;;2.40;;
50681;SDS011;36779;52.168;20.878;2022-10-13T14:33:53;10.70;;;2.90;;
50681;SDS011;36779;52.168;20.878;2022-10-13T14:36:23;8.10;;;2.90;;
50681;SDS011;36779;52.168;20.878;2022-10-13T14:38:52;11.40;;;2.70;;
50681;SDS011;36779;52.168;20.878;2022-10-13T14:41:22;9.50;;;3.00;;
50681;SDS011;36779;52.168;20.878;2022-10-13T14:43:52;8.00;;;2.90;;
50681;SDS011;36779;52.168;20.878;2022-10-13T14:46:21;8.20;;;3.20;;
50681;SDS011;36779;52.168;20.878;2022-10-13T14:48:51;10.20;;;3.10;;
50681;SDS011;36779;52.168;20.878;2022-10-13T14:51:21;11.50;;;3.00;;
50681;SDS011;36779;52.168;20.878;2022-10-13T14:53:50;14.80;;;3.30;;
50681;SDS011;36779;52.168;20.878;2022-10-13T14:56:19;7.20;;;3.00;;
50681;SDS011;36779;52.168;20.878;2022-10-13T14:58:58;8.80;;;2.60;;
50681;SDS011;36779;52.168;20.878;2022-10-13T15:01:36;7.70;;;3.10;;
50681;SDS011;36779;52.168;20.878;2022-10-13T15:04:08;10.80;;;3.80;;
50681;SDS011;36779;52.168;20.878;2022-10-13T15:06:38;8.30;;;3.50;;
50681;SDS011;36779;52.168;20.878;2022-10-13T15:09:09;11.90;;;3.80;;
50681;SDS011;36779;52.168;20.878;2022-10-13T15:11:39;12.10;;;4.00;;